createdAt,value
2023-05-19T00:01:19.286Z,101180.86
2023-05-19T00:03:58.990Z,101180.86
2023-05-19T00:06:33.545Z,101180.39
2023-05-19T00:09:08.243Z,101173.95
2023-05-19T00:11:40.333Z,101175.89
2023-05-19T00:14:11.185Z,101184.19
2023-05-19T00:16:42.305Z,101189.23
2023-05-19T00:19:12.345Z,101189.23
2023-05-19T00:21:42.534Z,101182.71
2023-05-19T00:24:13.234Z,101185.45
2023-05-19T00:26:43.397Z,101183.03
2023-05-19T00:29:13.234Z,101183.89
2023-05-19T00:31:43.834Z,101187.06
2023-05-19T00:34:13.513Z,101187.37
2023-05-19T00:36:43.419Z,101178.83
2023-05-19T00:39:15.075Z,101191.32
2023-05-19T00:41:45.011Z,101194.88
2023-05-19T00:44:14.826Z,101194.63
2023-05-19T00:46:44.776Z,101194.63
2023-05-19T00:49:14.445Z,101199.05
2023-05-19T00:51:44.437Z,101199.05
2023-05-19T00:54:14.002Z,101188.91
2023-05-19T00:56:44.921Z,101199.52
2023-05-19T00:59:15.000Z,101199.66
2023-05-19T01:01:46.631Z,101199.98
2023-05-19T01:04:20.093Z,101199.13
2023-05-19T01:06:52.176Z,101201.84
2023-05-19T01:09:23.825Z,101201.69
2023-05-19T01:11:52.695Z,101200.77
2023-05-19T01:14:22.464Z,101204.25
2023-05-19T01:17:02.915Z,101200.77
2023-05-19T01:19:46.276Z,101201.76
2023-05-19T01:22:21.185Z,101206.25
2023-05-19T01:25:10.757Z,101201.91
2023-05-19T01:27:49.575Z,101196.80
2023-05-19T01:30:23.812Z,101193.17
2023-05-19T01:32:56.726Z,101194.80
2023-05-19T01:35:27.590Z,101196.20
2023-05-19T01:37:59.970Z,101198.69
2023-05-19T01:40:31.201Z,101203.57
2023-05-19T01:43:02.806Z,101198.61
2023-05-19T01:45:35.519Z,101206.77
2023-05-19T01:48:13.302Z,101209.09
2023-05-19T01:50:43.702Z,101204.11
2023-05-19T01:53:13.426Z,101200.78
2023-05-19T01:55:49.681Z,101197.30
2023-05-19T01:58:43.961Z,101201.95
2023-05-19T02:01:36.869Z,101204.66
2023-05-19T02:04:37.869Z,101199.77
2023-05-19T02:07:17.212Z,101200.55
2023-05-19T02:10:04.069Z,101196.45
2023-05-19T02:12:40.084Z,101194.05
2023-05-19T02:15:19.028Z,101194.68
2023-05-19T02:17:53.846Z,101184.98
2023-05-19T02:20:23.552Z,101193.75
2023-05-19T02:22:53.461Z,101195.61
2023-05-19T02:25:24.301Z,101194.60
2023-05-19T02:27:54.202Z,101201.20
2023-05-19T02:30:24.246Z,101196.59
2023-05-19T02:32:54.363Z,101188.14
2023-05-19T02:35:25.090Z,101189.69
2023-05-19T02:37:54.979Z,101188.30
2023-05-19T02:40:24.687Z,101182.02
2023-05-19T02:42:54.575Z,101179.45
2023-05-19T02:45:24.985Z,101186.52
2023-05-19T02:47:54.901Z,101183.02
2023-05-19T02:50:24.495Z,101178.45
2023-05-19T02:52:54.538Z,101184.58
2023-05-19T02:55:24.102Z,101188.46
2023-05-19T02:57:53.959Z,101180.00
2023-05-19T03:00:23.592Z,101180.00
2023-05-19T03:02:54.232Z,101178.69
2023-05-19T03:05:24.606Z,101170.77
2023-05-19T03:07:54.475Z,101171.16
2023-05-19T03:10:24.831Z,101174.53
2023-05-19T03:12:54.662Z,101176.78
2023-05-19T03:15:24.527Z,101176.23
2023-05-19T03:17:54.564Z,101179.23
2023-05-19T03:20:24.588Z,101177.16
2023-05-19T03:22:54.516Z,101173.48
2023-05-19T03:25:24.346Z,101178.77
2023-05-19T03:27:54.372Z,101179.15
2023-05-19T03:30:24.377Z,101178.06
2023-05-19T03:32:56.057Z,101174.26
2023-05-19T03:35:26.124Z,101172.97
2023-05-19T03:37:56.072Z,101172.97
2023-05-19T03:40:26.217Z,101171.19
2023-05-19T03:42:57.837Z,101175.38
2023-05-19T03:45:28.028Z,101176.07
2023-05-19T03:47:58.127Z,101167.99
2023-05-19T03:50:46.429Z,101173.11
2023-05-19T03:53:18.009Z,101178.42
2023-05-19T03:55:49.635Z,101176.23
2023-05-19T03:58:19.650Z,101176.22
2023-05-19T04:00:49.524Z,101172.33
2023-05-19T04:03:19.177Z,101179.73
2023-05-19T04:05:49.103Z,101178.47
2023-05-19T04:08:18.771Z,101175.50
2023-05-19T04:10:48.613Z,101172.80
2023-05-19T04:13:18.328Z,101178.69
2023-05-19T04:15:48.375Z,101177.19
2023-05-19T04:18:17.962Z,101173.91
2023-05-19T04:20:47.841Z,101180.83
2023-05-19T04:23:17.370Z,101179.42
2023-05-19T04:25:48.707Z,101180.20
2023-05-19T04:28:18.621Z,101180.20
2023-05-19T04:30:48.597Z,101178.02
2023-05-19T04:33:20.089Z,101171.58
2023-05-19T04:35:50.358Z,101175.38
2023-05-19T04:38:22.028Z,101175.98
2023-05-19T04:40:52.030Z,101175.84
2023-05-19T04:43:22.412Z,101176.06
2023-05-19T04:45:52.475Z,101173.19
2023-05-19T04:48:23.105Z,101175.69
2023-05-19T04:50:53.379Z,101181.92
2023-05-19T04:53:24.681Z,101180.98
2023-05-19T04:55:54.562Z,101188.22
2023-05-19T04:58:26.246Z,101187.36
2023-05-19T05:00:56.108Z,101198.94
2023-05-19T05:03:26.747Z,101192.69
2023-05-19T05:05:58.678Z,101191.27
2023-05-19T05:08:31.228Z,101191.56
2023-05-19T05:11:01.956Z,101195.56
2023-05-19T05:13:33.682Z,101192.33
2023-05-19T05:16:06.004Z,101195.47
2023-05-19T05:18:38.351Z,101195.27
2023-05-19T05:21:09.115Z,101198.86
2023-05-19T05:23:39.107Z,101200.58
2023-05-19T05:26:12.048Z,101199.06
2023-05-19T05:28:43.144Z,101199.63
2023-05-19T05:31:12.872Z,101197.84
2023-05-19T05:33:43.714Z,101203.33
2023-05-19T05:36:14.136Z,101202.84
2023-05-19T05:38:44.050Z,101199.83
2023-05-19T05:41:14.338Z,101199.07
2023-05-19T05:43:44.385Z,101194.70
2023-05-19T05:46:14.792Z,101200.38
2023-05-19T05:48:45.262Z,101200.75
2023-05-19T05:51:15.307Z,101200.75
2023-05-19T05:53:47.958Z,101198.88
2023-05-19T05:56:18.683Z,101191.97
2023-05-19T05:58:50.584Z,101189.36
2023-05-19T06:01:21.017Z,101185.26
2023-05-19T06:03:50.893Z,101192.54
2023-05-19T06:06:22.500Z,101190.06
2023-05-19T06:08:53.713Z,101196.97
2023-05-19T06:11:25.041Z,101200.47
2023-05-19T06:13:56.095Z,101202.77
2023-05-19T06:16:44.099Z,101208.91
2023-05-19T06:19:14.919Z,101209.55
2023-05-19T06:21:46.352Z,101211.38
2023-05-19T06:24:17.130Z,101211.62
2023-05-19T06:26:47.016Z,101210.78
2023-05-19T06:29:17.267Z,101208.80
2023-05-19T06:31:47.404Z,101210.55
2023-05-19T06:34:19.007Z,101212.45
2023-05-19T06:36:49.038Z,101214.25
2023-05-19T06:39:18.697Z,101210.06
2023-05-19T06:41:48.563Z,101212.09
2023-05-19T06:44:21.155Z,101215.80
2023-05-19T06:46:51.920Z,101208.62
2023-05-19T06:49:23.829Z,101209.98
2023-05-19T06:51:53.775Z,101211.81
2023-05-19T06:54:23.343Z,101209.30
2023-05-19T06:56:53.257Z,101216.25
2023-05-19T06:59:23.097Z,101215.21
2023-05-19T07:01:53.166Z,101215.47
2023-05-19T07:04:24.148Z,101216.17
2023-05-19T07:06:53.458Z,101213.79
2023-05-19T07:09:23.397Z,101215.78
2023-05-19T07:11:53.440Z,101224.77
2023-05-19T07:14:23.497Z,101224.77
2023-05-19T07:16:53.522Z,101230.56
2023-05-19T07:19:24.313Z,101229.22
2023-05-19T07:21:55.548Z,101227.80
2023-05-19T07:24:25.242Z,101228.48
2023-05-19T07:26:55.256Z,101230.02
2023-05-19T07:29:24.890Z,101230.56
2023-05-19T07:31:56.563Z,101232.04
2023-05-19T07:34:26.580Z,101225.64
2023-05-19T07:36:56.750Z,101235.45
2023-05-19T07:39:28.247Z,101232.14
2023-05-19T07:41:59.356Z,101230.81
2023-05-19T07:44:30.679Z,101224.56
2023-05-19T07:47:00.734Z,101224.56
2023-05-19T07:49:30.651Z,101231.09
2023-05-19T07:52:01.264Z,101226.36
2023-05-19T07:54:31.125Z,101222.80
2023-05-19T07:57:01.057Z,101214.19
2023-05-19T07:59:31.038Z,101218.16
2023-05-19T08:02:00.999Z,101217.03
2023-05-19T08:04:30.954Z,101221.19
2023-05-19T08:07:00.865Z,101221.19
2023-05-19T08:09:30.952Z,101222.22
2023-05-19T08:12:01.755Z,101219.54
2023-05-19T08:14:33.273Z,101218.39
2023-05-19T08:17:03.026Z,101221.72
2023-05-19T08:19:32.913Z,101218.97
2023-05-19T08:22:03.532Z,101221.14
2023-05-19T08:24:33.801Z,101218.84
2023-05-19T08:27:04.884Z,101218.57
2023-05-19T08:29:34.859Z,101225.68
2023-05-19T08:32:05.255Z,101215.48
2023-05-19T08:34:35.138Z,101227.38
2023-05-19T08:37:05.186Z,101220.09
2023-05-19T08:39:34.933Z,101220.67
2023-05-19T08:42:06.987Z,101215.63
2023-05-19T08:44:39.999Z,101210.75
2023-05-19T08:47:14.360Z,101211.25
2023-05-19T08:49:47.344Z,101211.45
2023-05-19T08:52:21.073Z,101211.36
2023-05-19T08:54:56.812Z,101212.50
2023-05-19T08:57:27.126Z,101213.83
2023-05-19T08:59:58.432Z,101216.75
2023-05-19T09:02:29.533Z,101210.16
2023-05-19T09:04:59.817Z,101212.43
2023-05-19T09:07:33.663Z,101212.11
2023-05-19T09:10:04.657Z,101213.08
2023-05-19T09:12:35.722Z,101206.96
2023-05-19T09:15:08.541Z,101206.96
2023-05-19T09:17:38.905Z,101205.37
2023-05-19T09:20:10.717Z,101205.37
2023-05-19T09:22:47.560Z,101208.24
2023-05-19T09:25:21.609Z,101202.97
2023-05-19T09:27:52.000Z,101201.42
2023-05-19T09:30:21.930Z,101201.86
2023-05-19T09:32:52.875Z,101200.55
2023-05-19T09:35:22.756Z,101197.71
2023-05-19T09:37:52.636Z,101199.83
2023-05-19T09:40:22.562Z,101197.55
2023-05-19T09:42:53.999Z,101193.73
2023-05-19T09:45:23.637Z,101194.51
2023-05-19T09:47:54.686Z,101193.55
2023-05-19T09:50:27.634Z,101192.66
2023-05-19T09:52:58.957Z,101189.09
2023-05-19T09:55:29.337Z,101188.69
2023-05-19T09:58:04.305Z,101188.42
2023-05-19T10:00:35.505Z,101174.05
2023-05-19T10:03:07.195Z,101186.31
2023-05-19T10:05:37.672Z,101171.02
2023-05-19T10:08:09.848Z,101165.45
2023-05-19T10:10:40.087Z,101165.45
2023-05-19T10:13:10.772Z,101168.95
2023-05-19T10:15:57.505Z,101170.77
2023-05-19T10:18:18.810Z,101172.82
2023-05-19T10:20:51.207Z,101172.69
2023-05-19T10:23:22.284Z,101164.27
2023-05-19T10:25:52.729Z,101160.99
2023-05-19T10:28:27.503Z,101160.70
2023-05-19T10:31:00.921Z,101161.69
2023-05-19T10:33:53.097Z,101156.98
2023-05-19T10:36:37.944Z,101157.88
2023-05-19T10:39:12.313Z,101160.83
2023-05-19T10:41:53.932Z,101158.16
2023-05-19T10:44:49.389Z,101165.23
2023-05-19T10:47:26.809Z,101166.47
2023-05-19T10:49:57.141Z,101165.40
2023-05-19T10:52:28.457Z,101164.11
2023-05-19T10:54:59.306Z,101165.63
2023-05-19T10:57:31.516Z,101167.53
2023-05-19T11:00:05.042Z,101161.02
2023-05-19T11:02:41.049Z,101164.50
2023-05-19T11:05:18.220Z,101167.11
2023-05-19T11:08:05.487Z,101169.52
2023-05-19T11:10:35.795Z,101165.72
2023-05-19T11:13:07.418Z,101163.59
2023-05-19T11:15:37.740Z,101160.79
2023-05-19T11:18:07.419Z,101160.81
2023-05-19T11:20:40.188Z,101155.69
2023-05-19T11:23:20.226Z,101154.90
2023-05-19T11:25:53.933Z,101162.55
2023-05-19T11:28:29.393Z,101153.75
2023-05-19T11:31:01.080Z,101149.25
2023-05-19T11:33:32.595Z,101161.11
2023-05-19T11:36:02.572Z,101159.78
2023-05-19T11:38:33.439Z,101159.11
2023-05-19T11:41:04.378Z,101155.42
2023-05-19T11:43:34.262Z,101154.64
2023-05-19T11:46:04.159Z,101160.88
2023-05-19T11:48:34.295Z,101155.45
2023-05-19T11:51:04.500Z,101161.92
2023-05-19T11:53:36.100Z,101155.42
2023-05-19T11:56:06.811Z,101162.19
2023-05-19T11:58:38.294Z,101160.05
2023-05-19T12:01:08.237Z,101164.28
2023-05-19T12:03:38.502Z,101167.53
2023-05-19T12:06:09.135Z,101157.48
2023-05-19T12:08:39.167Z,101159.48
2023-05-19T12:11:09.147Z,101161.36
2023-05-19T12:13:39.514Z,101161.36
2023-05-19T12:16:10.206Z,101166.52
2023-05-19T12:18:40.547Z,101157.86
2023-05-19T12:21:10.302Z,101159.16
2023-05-19T12:23:41.598Z,101153.79
2023-05-19T12:26:12.318Z,101158.21
2023-05-19T12:28:44.900Z,101155.91
2023-05-19T12:31:15.048Z,101149.86
2023-05-19T12:33:45.025Z,101156.20
2023-05-19T12:36:14.860Z,101147.41
2023-05-19T12:38:45.643Z,101157.39
2023-05-19T12:41:16.734Z,101161.77
2023-05-19T12:43:46.603Z,101159.52
2023-05-19T12:46:16.578Z,101159.66
2023-05-19T12:48:47.802Z,101160.70
2023-05-19T12:51:23.688Z,101160.70
2023-05-19T12:54:06.038Z,101165.70
2023-05-19T12:57:08.165Z,101171.34
2023-05-19T12:59:39.102Z,101165.20
2023-05-19T13:02:09.035Z,101167.98
2023-05-19T13:04:39.201Z,101164.94
2023-05-19T13:07:10.125Z,101158.92
2023-05-19T13:09:40.008Z,101160.75
2023-05-19T13:12:09.862Z,101157.05
2023-05-19T13:14:41.647Z,101157.05
2023-05-19T13:17:11.496Z,101153.34
2023-05-19T13:19:44.346Z,101160.74
2023-05-19T13:22:17.672Z,101162.77
2023-05-19T13:24:50.537Z,101151.75
2023-05-19T13:27:20.392Z,101151.75
2023-05-19T13:29:50.631Z,101148.41
2023-05-19T13:32:20.515Z,101148.03
2023-05-19T13:34:50.454Z,101149.88
2023-05-19T13:37:20.362Z,101145.44
2023-05-19T13:39:50.442Z,101152.77
2023-05-19T13:42:20.303Z,101150.80
2023-05-19T13:44:50.460Z,101156.89
2023-05-19T13:47:20.352Z,101151.23
2023-05-19T13:49:50.292Z,101152.63
2023-05-19T13:52:21.733Z,101147.39
2023-05-19T13:54:53.296Z,101145.58
2023-05-19T13:57:25.455Z,101145.58
2023-05-19T14:00:01.630Z,101149.98
2023-05-19T14:02:27.825Z,101151.35
2023-05-19T14:04:57.932Z,101154.60
2023-05-19T14:07:28.261Z,101150.61
2023-05-19T14:09:58.043Z,101148.99
2023-05-19T14:12:38.180Z,101145.36
2023-05-19T14:15:00.711Z,101144.78
2023-05-19T14:17:30.682Z,101148.61
2023-05-19T14:20:01.679Z,101148.61
2023-05-19T14:22:31.625Z,101146.44
2023-05-19T14:25:01.536Z,101143.66
2023-05-19T14:27:31.419Z,101143.28
2023-05-19T14:30:01.560Z,101141.75
2023-05-19T14:32:31.474Z,101141.27
2023-05-19T14:35:01.376Z,101143.00
2023-05-19T14:37:32.258Z,101137.87
2023-05-19T14:40:02.257Z,101137.26
2023-05-19T14:42:32.154Z,101134.31
2023-05-19T14:45:02.022Z,101129.02
2023-05-19T14:47:31.970Z,101135.08
2023-05-19T14:50:02.154Z,101139.72
2023-05-19T14:52:32.114Z,101140.62
2023-05-19T14:55:01.969Z,101138.16
2023-05-19T14:57:31.839Z,101137.25
2023-05-19T15:00:02.037Z,101130.84
2023-05-19T15:02:32.949Z,101131.52
2023-05-19T15:05:03.379Z,101132.64
2023-05-19T15:07:33.528Z,101136.36
2023-05-19T15:10:06.921Z,101134.80
2023-05-19T15:12:36.935Z,101131.86
2023-05-19T15:15:07.716Z,101131.86
2023-05-19T15:17:37.766Z,101129.32
2023-05-19T15:20:08.092Z,101136.36
2023-05-19T15:22:37.721Z,101125.41
2023-05-19T15:25:08.336Z,101125.34
2023-05-19T15:27:38.702Z,101129.22
2023-05-19T15:30:08.672Z,101127.80
2023-05-19T15:32:38.638Z,101125.64
2023-05-19T15:35:09.283Z,101121.41
2023-05-19T15:37:39.138Z,101120.54
2023-05-19T15:40:09.840Z,101116.21
2023-05-19T15:42:39.704Z,101112.42
2023-05-19T15:45:10.521Z,101111.00
2023-05-19T15:47:40.482Z,101110.56
2023-05-19T15:50:11.006Z,101113.34
2023-05-19T15:52:41.617Z,101110.59
2023-05-19T15:55:12.455Z,101105.59
2023-05-19T15:57:42.314Z,101107.87
2023-05-19T16:00:14.084Z,101113.18
2023-05-19T16:02:44.059Z,101108.13
2023-05-19T16:05:13.999Z,101109.70
2023-05-19T16:07:43.728Z,101109.70
2023-05-19T16:10:15.567Z,101110.91
2023-05-19T16:12:45.445Z,101115.63
2023-05-19T16:15:15.424Z,101114.86
2023-05-19T16:17:45.295Z,101109.61
2023-05-19T16:20:22.962Z,101113.24
2023-05-19T16:22:55.446Z,101111.58
2023-05-19T16:25:25.445Z,101103.66
2023-05-19T16:27:55.410Z,101104.65
2023-05-19T16:30:26.332Z,101106.26
2023-05-19T16:32:56.315Z,101117.16
2023-05-19T16:35:27.858Z,101106.84
2023-05-19T16:37:59.783Z,101109.70
2023-05-19T16:40:30.999Z,101109.73
2023-05-19T16:43:01.149Z,101103.20
2023-05-19T16:45:32.056Z,101108.65
2023-05-19T16:48:02.100Z,101103.11
2023-05-19T16:50:31.869Z,101097.12
2023-05-19T16:53:01.720Z,101098.33
2023-05-19T16:55:31.595Z,101100.79
2023-05-19T16:58:01.536Z,101104.13
2023-05-19T17:00:31.514Z,101106.79
2023-05-19T17:03:01.526Z,101102.69
2023-05-19T17:05:31.985Z,101103.16
2023-05-19T17:08:01.882Z,101103.16
2023-05-19T17:10:31.943Z,101108.97
2023-05-19T17:13:01.619Z,101113.30
2023-05-19T17:15:31.664Z,101107.13
2023-05-19T17:18:01.574Z,101106.34
2023-05-19T17:20:31.662Z,101106.34
2023-05-19T17:23:01.632Z,101110.30
2023-05-19T17:25:34.187Z,101112.59
2023-05-19T17:28:04.227Z,101115.99
2023-05-19T17:30:34.874Z,101121.20
2023-05-19T17:33:06.169Z,101115.84
2023-05-19T17:35:36.105Z,101123.19
2023-05-19T17:38:06.174Z,101123.19
2023-05-19T17:40:37.051Z,101128.77
2023-05-19T17:43:08.214Z,101130.94
2023-05-19T17:45:38.156Z,101128.62
2023-05-19T17:48:08.205Z,101132.72
2023-05-19T17:50:37.959Z,101130.34
2023-05-19T17:53:08.171Z,101130.34
2023-05-19T17:55:38.246Z,101131.42
2023-05-19T17:58:08.632Z,101134.27
2023-05-19T18:00:38.823Z,101134.74
2023-05-19T18:03:09.057Z,101136.09
2023-05-19T18:05:40.110Z,101131.67
2023-05-19T18:08:13.041Z,101128.87
2023-05-19T18:10:43.753Z,101128.77
2023-05-19T18:13:16.557Z,101127.69
2023-05-19T18:15:46.695Z,101127.20
2023-05-19T18:18:16.287Z,101123.28
2023-05-19T18:20:46.220Z,101117.81
2023-05-19T18:23:15.995Z,101118.02
2023-05-19T18:25:53.153Z,101123.12
2023-05-19T18:28:24.022Z,101121.37
2023-05-19T18:31:03.528Z,101122.34
2023-05-19T18:33:33.927Z,101117.59
2023-05-19T18:36:03.787Z,101117.74
2023-05-19T18:38:33.656Z,101110.27
2023-05-19T18:41:03.615Z,101114.40
2023-05-19T18:43:34.343Z,101109.09
2023-05-19T18:46:04.079Z,101108.82
2023-05-19T18:48:34.110Z,101112.66
2023-05-19T18:51:04.085Z,101117.27
2023-05-19T18:53:37.752Z,101126.20
2023-05-19T18:56:07.885Z,101102.11
2023-05-19T18:58:38.071Z,101123.49
2023-05-19T19:01:08.113Z,101131.36
2023-05-19T19:03:38.052Z,101134.59
2023-05-19T19:06:07.926Z,101138.66
2023-05-19T19:08:38.119Z,101138.66
2023-05-19T19:11:14.347Z,101146.27
2023-05-19T19:13:44.733Z,101147.02
2023-05-19T19:16:14.618Z,101147.02
2023-05-19T19:18:44.948Z,101147.02
2023-05-19T19:21:14.622Z,101144.16
2023-05-19T19:23:44.465Z,101151.27
2023-05-19T19:26:14.343Z,101153.17
2023-05-19T19:28:46.224Z,101159.66
2023-05-19T19:31:16.388Z,101153.59
2023-05-19T19:33:46.596Z,101153.02
2023-05-19T19:36:16.468Z,101160.08
2023-05-19T19:38:46.239Z,101165.86
2023-05-19T19:41:16.343Z,101163.63
2023-05-19T19:43:45.922Z,101159.43
2023-05-19T19:46:15.865Z,101157.14
2023-05-19T19:48:45.925Z,101148.49
2023-05-19T19:51:17.359Z,101151.05
2023-05-19T19:53:47.214Z,101149.13
2023-05-19T19:56:17.104Z,101157.77
2023-05-19T19:58:46.982Z,101155.94
2023-05-19T20:01:16.707Z,101152.20
2023-05-19T20:03:47.373Z,101152.05
2023-05-19T20:06:17.328Z,101149.03
2023-05-19T20:08:47.240Z,101155.45
2023-05-19T20:11:17.376Z,101162.56
2023-05-19T20:13:47.526Z,101158.17
2023-05-19T20:16:17.588Z,101161.45
2023-05-19T20:18:47.607Z,101166.77
2023-05-19T20:21:18.736Z,101167.72
2023-05-19T20:23:50.995Z,101166.39
2023-05-19T20:26:20.854Z,101170.17
2023-05-19T20:28:50.859Z,101163.53
2023-05-19T20:31:21.892Z,101161.63
2023-05-19T20:33:51.867Z,101167.75
2023-05-19T20:36:21.489Z,101164.35
2023-05-19T20:38:51.777Z,101165.27
2023-05-19T20:41:22.467Z,101168.40
2023-05-19T20:43:51.386Z,101159.86
2023-05-19T20:46:21.356Z,101166.97
2023-05-19T20:48:51.210Z,101168.03
2023-05-19T20:51:22.394Z,101172.17
2023-05-19T20:53:52.172Z,101163.39
2023-05-19T20:56:22.687Z,101158.42
2023-05-19T20:58:52.231Z,101153.42
2023-05-19T21:01:21.903Z,101160.70
2023-05-19T21:03:51.934Z,101155.77
2023-05-19T21:06:21.524Z,101158.46
2023-05-19T21:08:51.620Z,101154.81
2023-05-19T21:11:21.500Z,101150.19
2023-05-19T21:13:51.622Z,101152.03
2023-05-19T21:16:21.307Z,101150.02
2023-05-19T21:18:51.227Z,101147.70
2023-05-19T21:21:21.119Z,101150.22
2023-05-19T21:23:51.349Z,101145.94
2023-05-19T21:26:22.096Z,101153.22
2023-05-19T21:28:52.113Z,101150.25
2023-05-19T21:31:21.994Z,101155.63
2023-05-19T21:33:52.141Z,101157.23
2023-05-19T21:36:22.989Z,101153.02
2023-05-19T21:38:52.873Z,101151.30
2023-05-19T21:41:22.745Z,101150.31
2023-05-19T21:43:52.486Z,101149.74
2023-05-19T21:46:23.473Z,101149.74
2023-05-19T21:48:53.332Z,101153.08
2023-05-19T21:51:23.299Z,101148.18
2023-05-19T21:53:53.166Z,101151.55
2023-05-19T21:56:22.918Z,101147.77
2023-05-19T21:58:52.773Z,101151.75
2023-05-19T22:01:24.511Z,101143.04
2023-05-19T22:03:54.430Z,101145.49
2023-05-19T22:06:24.292Z,101142.59
2023-05-19T22:08:54.168Z,101149.13
2023-05-19T22:11:23.774Z,101146.81
2023-05-19T22:13:54.804Z,101138.34
2023-05-19T22:16:24.606Z,101142.19
2023-05-19T22:18:54.895Z,101140.22
2023-05-19T22:21:24.660Z,101140.22
2023-05-19T22:23:54.536Z,101141.91
2023-05-19T22:26:24.678Z,101142.28
2023-05-19T22:28:54.871Z,101139.06
2023-05-19T22:31:24.800Z,101130.34
2023-05-19T22:33:54.745Z,101130.89
2023-05-19T22:36:25.372Z,101128.51
2023-05-19T22:38:55.311Z,101121.16
2023-05-19T22:41:25.103Z,101123.26
2023-05-19T22:43:55.042Z,101121.18
2023-05-19T22:46:24.755Z,101117.95
2023-05-19T22:48:54.811Z,101114.48
2023-05-19T22:51:24.507Z,101118.23
2023-05-19T22:53:54.401Z,101114.42
2023-05-19T22:56:24.050Z,101117.55
2023-05-19T22:58:53.945Z,101125.03
2023-05-19T23:01:23.911Z,101118.87
2023-05-19T23:03:53.868Z,101121.78
2023-05-19T23:06:23.687Z,101128.09
2023-05-19T23:09:04.527Z,101123.26
2023-05-19T23:11:35.889Z,101130.72
2023-05-19T23:14:06.581Z,101133.64
2023-05-19T23:16:36.494Z,101124.48
2023-05-19T23:19:07.278Z,101130.81
2023-05-19T23:21:37.313Z,101124.96
2023-05-19T23:24:07.518Z,101123.12
2023-05-19T23:26:37.371Z,101115.74
2023-05-19T23:29:07.243Z,101115.74
2023-05-19T23:31:37.202Z,101117.92
2023-05-19T23:34:07.009Z,101116.45
2023-05-19T23:36:36.949Z,101114.45
2023-05-19T23:39:06.932Z,101115.77
2023-05-19T23:41:37.189Z,101113.12
2023-05-19T23:44:06.932Z,101113.12
2023-05-19T23:46:36.867Z,101116.35
2023-05-19T23:49:06.812Z,101113.97
2023-05-19T23:51:36.775Z,101112.64
2023-05-19T23:54:06.699Z,101115.50
2023-05-19T23:56:36.620Z,101109.95
2023-05-19T23:59:06.581Z,101108.92
